Time;durP1;ratioP1;P1;durP2;ratioP2;P2;SDS_P1;SDS_P2;PMS_P1;PMS_P2;Temp;Humidity;BMP_temperature;BMP_pressure;BME280_temperature;BME280_humidity;BME280_pressure;Samples;Min_cycle;Max_cycle;Signal;HPM_P1;HPM_P2
2021/12/29 00:01:00;;;;;;;5.57;1.60;;;;;;;;;;5014396;28;20033;-91
2021/12/29 00:03:26;;;;;;;2.90;1.05;;;;;;;;;;4995727;28;20038;-91
2021/12/29 00:05:52;;;;;;;6.78;1.60;;;;;;;;;;5013338;28;20030;-91
2021/12/29 00:08:18;;;;;;;7.18;1.80;;;;;;;;;;4995564;28;20032;-91
2021/12/29 00:10:46;;;;;;;4.05;1.27;;;;;;;;;;4995327;28;20061;-92
2021/12/29 00:13:13;;;;;;;4.45;1.52;;;;;;;;;;5011598;28;20516;-90
2021/12/29 00:15:39;;;;;;;5.65;1.50;;;;;;;;;;5012542;28;20405;-91
2021/12/29 00:18:04;;;;;;;9.07;1.90;;;;;;;;;;4993930;28;20515;-90
2021/12/29 00:20:31;;;;;;;4.47;1.35;;;;;;;;;;4995243;28;20042;-91
2021/12/29 00:23:00;;;;;;;9.98;2.40;;;;;;;;;;5012597;28;20623;-90
2021/12/29 00:25:26;;;;;;;7.47;1.05;;;;;;;;;;5012934;28;20037;-90
2021/12/29 00:27:55;;;;;;;3.33;1.30;;;;;;;;;;4994390;28;20037;-90
2021/12/29 00:30:22;;;;;;;4.65;1.40;;;;;;;;;;5012714;28;20030;-90
2021/12/29 00:32:48;;;;;;;7.47;1.45;;;;;;;;;;5015334;28;20033;-90
2021/12/29 00:35:14;;;;;;;6.68;1.92;;;;;;;;;;5031706;28;20037;-91
2021/12/29 00:37:41;;;;;;;4.38;1.27;;;;;;;;;;5032387;28;20037;-90
2021/12/29 00:40:09;;;;;;;7.57;1.45;;;;;;;;;;5032876;28;20025;-90
2021/12/29 00:42:35;;;;;;;2.92;1.10;;;;;;;;;;5032580;28;20036;-90
2021/12/29 00:45:02;;;;;;;3.03;1.02;;;;;;;;;;5032952;28;20056;-91
2021/12/29 00:47:31;;;;;;;5.53;1.80;;;;;;;;;;5014720;28;20037;-91
2021/12/29 00:49:59;;;;;;;3.22;1.00;;;;;;;;;;5015390;28;20037;-90
2021/12/29 00:52:25;;;;;;;2.35;0.82;;;;;;;;;;5031761;28;20033;-91
2021/12/29 00:54:51;;;;;;;3.25;1.05;;;;;;;;;;5032033;28;20040;-91
2021/12/29 00:57:17;;;;;;;6.07;1.70;;;;;;;;;;5030931;28;20498;-90
2021/12/29 00:59:45;;;;;;;2.58;1.13;;;;;;;;;;5014750;28;20045;-90
2021/12/29 01:02:11;;;;;;;1.38;0.85;;;;;;;;;;5034103;28;20033;-92
2021/12/29 01:04:38;;;;;;;2.28;1.10;;;;;;;;;;5032839;28;20037;-90
2021/12/29 01:07:04;;;;;;;2.28;1.10;;;;;;;;;;5033143;28;20036;-90
2021/12/29 01:09:30;;;;;;;2.92;1.00;;;;;;;;;;5033505;28;20034;-91
2021/12/29 01:11:58;;;;;;;2.80;1.13;;;;;;;;;;5033467;28;20045;-90
2021/12/29 01:14:26;;;;;;;1.10;0.85;;;;;;;;;;5032804;28;20041;-90
2021/12/29 01:16:53;;;;;;;4.43;1.10;;;;;;;;;;5034163;28;20045;-90
2021/12/29 01:19:22;;;;;;;5.68;0.95;;;;;;;;;;5016443;28;20041;-92
2021/12/29 01:21:50;;;;;;;1.55;1.00;;;;;;;;;;5038896;28;20021;-90
2021/12/29 01:24:18;;;;;;;4.75;1.35;;;;;;;;;;5042145;28;20017;-90
2021/12/29 01:26:44;;;;;;;2.83;1.08;;;;;;;;;;5052654;28;20032;-91
2021/12/29 01:29:13;;;;;;;5.53;1.50;;;;;;;;;;5057472;28;20070;-90
2021/12/29 01:31:40;;;;;;;3.65;1.40;;;;;;;;;;5057854;28;20040;-90
2021/12/29 01:34:07;;;;;;;3.03;1.38;;;;;;;;;;5053399;28;20037;-91
2021/12/29 01:36:34;;;;;;;3.53;1.40;;;;;;;;;;5056783;28;20162;-90
2021/12/29 01:39:03;;;;;;;6.43;2.03;;;;;;;;;;5056837;28;20025;-90
2021/12/29 01:41:29;;;;;;;3.50;1.40;;;;;;;;;;5057291;28;20022;-90
2021/12/29 01:43:55;;;;;;;4.55;1.48;;;;;;;;;;5054235;28;20081;-91
2021/12/29 01:46:22;;;;;;;4.15;1.48;;;;;;;;;;5054089;28;20147;-92
2021/12/29 01:48:47;;;;;;;4.03;1.40;;;;;;;;;;5057468;28;20412;-91
2021/12/29 01:51:17;;;;;;;1.92;1.30;;;;;;;;;;5036748;28;20064;-91
2021/12/29 01:53:49;;;;;;;6.28;1.80;;;;;;;;;;5053771;28;20048;-90
2021/12/29 01:56:15;;;;;;;5.13;1.52;;;;;;;;;;5036527;28;20052;-91
2021/12/29 01:58:42;;;;;;;4.05;1.55;;;;;;;;;;5036564;28;20046;-91
2021/12/29 02:01:08;;;;;;;4.60;1.27;;;;;;;;;;5036052;28;20391;-90
2021/12/29 02:03:34;;;;;;;4.38;1.70;;;;;;;;;;5034806;28;20033;-90
2021/12/29 02:06:00;;;;;;;5.25;1.63;;;;;;;;;;5058041;28;20032;-90
2021/12/29 02:08:26;;;;;;;5.00;1.80;;;;;;;;;;5058015;28;20052;-90
2021/12/29 02:10:55;;;;;;;5.35;1.40;;;;;;;;;;5058101;28;20010;-90
2021/12/29 02:13:21;;;;;;;2.33;1.23;;;;;;;;;;5039663;28;20033;-91
2021/12/29 02:15:47;;;;;;;3.65;1.42;;;;;;;;;;5057429;28;20389;-91
2021/12/29 02:18:15;;;;;;;5.28;1.67;;;;;;;;;;5057711;28;20025;-91
2021/12/29 02:20:45;;;;;;;7.22;2.28;;;;;;;;;;5058201;28;20009;-90
2021/12/29 02:23:16;;;;;;;3.65;1.60;;;;;;;;;;5056535;28;20025;-91
2021/12/29 02:25:52;;;;;;;;;;;;;;;;;;5016858;28;20483;-92
2021/12/29 02:28:23;;;;;;;3.15;1.42;;;;;;;;;;5030472;28;19917;-91
2021/12/29 02:30:50;;;;;;;4.72;1.58;;;;;;;;;;5034565;28;20471;-91
2021/12/29 02:33:16;;;;;;;10.10;2.58;;;;;;;;;;5033696;28;20037;-92
2021/12/29 02:35:43;;;;;;;26.05;6.75;;;;;;;;;;5044895;28;20021;-90
2021/12/29 02:38:34;;;;;;;11.43;3.45;;;;;;;;;;5040019;28;20033;-90
2021/12/29 02:41:04;;;;;;;8.13;2.40;;;;;;;;;;5057470;28;20032;-90
2021/12/29 02:43:32;;;;;;;5.78;1.80;;;;;;;;;;5039916;28;20013;-90
2021/12/29 02:45:58;;;;;;;5.32;2.22;;;;;;;;;;5057745;28;20030;-91
2021/12/29 02:48:31;;;;;;;2.58;1.10;;;;;;;;;;5039666;28;20060;-91
2021/12/29 02:50:59;;;;;;;5.53;1.77;;;;;;;;;;5057460;28;20031;-90
2021/12/29 02:53:26;;;;;;;2.63;1.17;;;;;;;;;;5057501;28;20009;-90
2021/12/29 02:55:53;;;;;;;3.47;1.45;;;;;;;;;;5057273;28;20024;-89
2021/12/29 02:58:21;;;;;;;3.15;1.20;;;;;;;;;;5057415;28;20025;-90
2021/12/29 03:00:48;;;;;;;3.63;1.20;;;;;;;;;;5057955;28;20028;-90
2021/12/29 03:03:19;;;;;;;8.65;2.78;;;;;;;;;;5058904;28;20021;-89
2021/12/29 03:05:45;;;;;;;2.53;1.35;;;;;;;;;;5058940;28;20014;-90
2021/12/29 03:08:13;;;;;;;3.50;1.25;;;;;;;;;;5058949;28;20017;-90
2021/12/29 03:10:39;;;;;;;3.42;1.30;;;;;;;;;;5020758;28;20057;-92
2021/12/29 03:13:05;;;;;;;4.68;1.85;;;;;;;;;;5034765;28;20483;-90
2021/12/29 03:15:31;;;;;;;3.03;1.30;;;;;;;;;;5034561;28;20038;-91
2021/12/29 03:17:57;;;;;;;4.70;1.45;;;;;;;;;;5034523;28;20064;-89
2021/12/29 03:20:23;;;;;;;3.92;1.30;;;;;;;;;;5034975;28;20021;-91
2021/12/29 03:22:49;;;;;;;4.25;1.33;;;;;;;;;;5035219;28;20032;-89
2021/12/29 03:25:15;;;;;;;4.97;1.27;;;;;;;;;;5034419;28;20033;-90
2021/12/29 03:27:40;;;;;;;6.35;1.40;;;;;;;;;;5035005;28;20379;-91
2021/12/29 03:30:07;;;;;;;3.55;1.33;;;;;;;;;;5032772;28;20028;-89
2021/12/29 03:32:39;;;;;;;2.55;1.20;;;;;;;;;;5013879;28;20041;-88
2021/12/29 03:35:06;;;;;;;3.33;1.20;;;;;;;;;;5031206;28;20048;-90
2021/12/29 03:37:32;;;;;;;4.05;1.30;;;;;;;;;;5032028;28;20036;-90
2021/12/29 03:39:58;;;;;;;2.63;1.33;;;;;;;;;;5014114;28;20041;-89
2021/12/29 03:42:24;;;;;;;2.28;1.58;;;;;;;;;;5031825;28;20394;-91
2021/12/29 03:44:49;;;;;;;3.88;1.25;;;;;;;;;;5014134;28;20053;-90
2021/12/29 03:47:15;;;;;;;3.70;1.75;;;;;;;;;;5031327;28;20506;-90
2021/12/29 03:49:41;;;;;;;12.82;4.38;;;;;;;;;;5031146;28;20033;-89
2021/12/29 03:52:07;;;;;;;3.63;1.60;;;;;;;;;;5030958;28;20440;-89
2021/12/29 03:54:33;;;;;;;2.97;1.40;;;;;;;;;;5013667;28;20069;-89
2021/12/29 03:57:02;;;;;;;3.60;1.30;;;;;;;;;;5032277;28;20044;-89
2021/12/29 03:59:28;;;;;;;4.20;1.70;;;;;;;;;;5032293;28;20044;-89
2021/12/29 04:01:55;;;;;;;3.20;1.40;;;;;;;;;;5032040;28;20369;-90
2021/12/29 04:04:21;;;;;;;7.60;3.25;;;;;;;;;;5036658;28;20464;-91
2021/12/29 04:06:48;;;;;;;4.93;2.20;;;;;;;;;;5037911;28;20034;-89
2021/12/29 04:09:15;;;;;;;8.35;2.92;;;;;;;;;;5037481;28;20356;-89
2021/12/29 04:11:41;;;;;;;2.95;1.58;;;;;;;;;;5031820;28;20038;-91
2021/12/29 04:14:07;;;;;;;6.10;2.95;;;;;;;;;;5031262;28;20044;-90
2021/12/29 04:16:37;;;;;;;5.20;2.50;;;;;;;;;;5030759;28;20080;-91
2021/12/29 04:19:14;;;;;;;7.00;3.03;;;;;;;;;;5030978;28;20033;-89
2021/12/29 04:21:42;;;;;;;3.45;2.00;;;;;;;;;;5013075;28;20041;-90
2021/12/29 04:24:08;;;;;;;5.10;2.13;;;;;;;;;;5027231;28;20148;-91
2021/12/29 04:26:37;;;;;;;6.25;2.65;;;;;;;;;;5031561;28;20037;-89
2021/12/29 04:29:05;;;;;;;7.25;3.50;;;;;;;;;;5031246;28;20033;-89
2021/12/29 04:31:31;;;;;;;4.07;2.00;;;;;;;;;;5012457;28;20436;-90
2021/12/29 04:33:57;;;;;;;5.30;1.85;;;;;;;;;;5030222;28;20586;-89
2021/12/29 04:36:26;;;;;;;9.68;3.20;;;;;;;;;;5030925;28;20033;-90
2021/12/29 04:38:54;;;;;;;5.60;2.70;;;;;;;;;;5030741;28;20029;-91
2021/12/29 04:41:21;;;;;;;5.90;2.20;;;;;;;;;;5030888;28;20038;-90
2021/12/29 04:43:47;;;;;;;7.70;3.30;;;;;;;;;;5030977;28;20040;-90
2021/12/29 04:46:18;;;;;;;4.20;1.67;;;;;;;;;;5030865;28;20502;-89
2021/12/29 04:48:52;;;;;;;3.05;1.50;;;;;;;;;;5012418;28;20041;-89
2021/12/29 04:51:25;;;;;;;2.17;1.35;;;;;;;;;;5030922;28;20479;-89
2021/12/29 04:53:51;;;;;;;3.08;1.52;;;;;;;;;;5012501;28;20045;-90
2021/12/29 04:56:17;;;;;;;2.38;1.30;;;;;;;;;;5030525;28;20037;-90
2021/12/29 04:58:43;;;;;;;1.45;1.35;;;;;;;;;;5031134;28;20029;-88
2021/12/29 05:01:10;;;;;;;3.15;1.60;;;;;;;;;;5031172;28;20029;-88
2021/12/29 05:03:40;;;;;;;3.15;1.35;;;;;;;;;;5016027;28;20482;-89
2021/12/29 05:08:33;;;;;;;3.40;1.60;;;;;;;;;;5035295;28;20038;-87
2021/12/29 05:11:08;;;;;;;2.85;1.38;;;;;;;;;;5034924;28;20041;-88
2021/12/29 05:13:37;;;;;;;4.45;2.00;;;;;;;;;;5035415;28;20029;-88
2021/12/29 05:16:04;;;;;;;4.07;1.55;;;;;;;;;;5017083;28;20076;-88
2021/12/29 05:18:32;;;;;;;3.03;1.65;;;;;;;;;;5035114;28;20040;-90
2021/12/29 05:20:59;;;;;;;4.10;1.70;;;;;;;;;;5035033;28;20037;-89
2021/12/29 05:23:26;;;;;;;2.72;1.48;;;;;;;;;;5035232;28;20037;-89
2021/12/29 05:25:53;;;;;;;5.93;2.53;;;;;;;;;;5035373;28;20124;-89
2021/12/29 05:28:20;;;;;;;11.05;4.53;;;;;;;;;;5048380;28;20031;-90
2021/12/29 05:30:47;;;;;;;7.30;2.10;;;;;;;;;;5057192;28;20025;-88
2021/12/29 05:33:14;;;;;;;3.95;1.50;;;;;;;;;;5058120;28;20285;-88
2021/12/29 05:35:41;;;;;;;6.15;2.08;;;;;;;;;;5046640;28;20037;-91
2021/12/29 05:38:06;;;;;;;2.80;1.25;;;;;;;;;;5037835;28;20579;-89
2021/12/29 05:40:32;;;;;;;3.25;1.40;;;;;;;;;;5038370;28;20028;-88
2021/12/29 05:42:59;;;;;;;2.20;1.00;;;;;;;;;;5040378;28;20032;-87
2021/12/29 05:45:26;;;;;;;3.38;1.50;;;;;;;;;;5041088;28;20029;-89
2021/12/29 05:47:55;;;;;;;7.13;3.60;;;;;;;;;;5041040;28;20041;-90
2021/12/29 05:50:24;;;;;;;7.57;2.80;;;;;;;;;;5040217;28;20030;-88
2021/12/29 05:52:51;;;;;;;9.88;3.15;;;;;;;;;;5038482;28;20033;-88
2021/12/29 05:55:17;;;;;;;6.45;2.35;;;;;;;;;;5039103;28;20423;-89
2021/12/29 05:57:43;;;;;;;9.15;3.75;;;;;;;;;;5038635;28;20041;-88
2021/12/29 06:00:12;;;;;;;7.68;3.13;;;;;;;;;;5037643;28;20037;-90
2021/12/29 06:02:39;;;;;;;5.97;2.35;;;;;;;;;;5035360;28;20033;-88
2021/12/29 06:05:06;;;;;;;7.85;3.65;;;;;;;;;;5018761;28;20041;-90
2021/12/29 06:07:34;;;;;;;6.28;2.35;;;;;;;;;;5037115;28;20501;-89
2021/12/29 06:10:00;;;;;;;8.75;3.42;;;;;;;;;;5036213;28;20480;-89
2021/12/29 06:12:26;;;;;;;8.27;2.00;;;;;;;;;;5037347;28;20030;-88
2021/12/29 06:14:52;;;;;;;5.97;2.30;;;;;;;;;;5018703;28;20048;-89
2021/12/29 06:17:18;;;;;;;6.82;2.80;;;;;;;;;;5036383;28;20040;-90
2021/12/29 06:19:44;;;;;;;4.22;1.70;;;;;;;;;;5033165;28;20048;-89
2021/12/29 06:22:10;;;;;;;5.10;1.98;;;;;;;;;;5036563;28;20053;-89
2021/12/29 06:24:38;;;;;;;9.32;3.47;;;;;;;;;;5038267;28;20037;-89
2021/12/29 06:27:05;;;;;;;4.82;1.90;;;;;;;;;;5036319;28;20030;-89
2021/12/29 06:29:31;;;;;;;2.63;1.52;;;;;;;;;;5035938;28;20033;-90
2021/12/29 06:31:57;;;;;;;7.20;2.35;;;;;;;;;;5035887;28;20037;-90
2021/12/29 06:34:23;;;;;;;5.93;2.38;;;;;;;;;;5035738;28;20045;-90
2021/12/29 06:36:49;;;;;;;8.25;4.38;;;;;;;;;;5034892;28;20029;-89
2021/12/29 06:39:15;;;;;;;7.43;2.80;;;;;;;;;;5034101;28;20038;-89
2021/12/29 06:41:41;;;;;;;5.50;2.05;;;;;;;;;;5034179;28;20045;-89
2021/12/29 06:44:07;;;;;;;5.18;2.60;;;;;;;;;;5034909;28;20059;-89
2021/12/29 06:46:34;;;;;;;10.10;3.30;;;;;;;;;;5016811;28;20125;-90
2021/12/29 06:49:00;;;;;;;6.70;2.90;;;;;;;;;;5034250;28;20383;-90
2021/12/29 06:51:26;;;;;;;4.88;2.20;;;;;;;;;;5033760;28;20034;-89
2021/12/29 06:53:52;;;;;;;4.85;2.20;;;;;;;;;;5033454;28;20464;-90
2021/12/29 06:56:19;;;;;;;6.88;2.70;;;;;;;;;;5033102;28;20033;-89
2021/12/29 06:58:45;;;;;;;6.82;2.45;;;;;;;;;;5033189;28;20365;-90
2021/12/29 07:01:12;;;;;;;10.95;3.45;;;;;;;;;;5032761;28;20040;-91
2021/12/29 07:03:38;;;;;;;5.45;2.85;;;;;;;;;;5004663;28;20395;-89
2021/12/29 07:06:04;;;;;;;5.32;2.17;;;;;;;;;;5020324;28;20033;-90
2021/12/29 07:08:30;;;;;;;6.57;2.33;;;;;;;;;;5022546;28;20109;-88
2021/12/29 07:10:56;;;;;;;4.03;2.28;;;;;;;;;;5021998;28;20475;-92
2021/12/29 07:13:22;;;;;;;6.05;2.10;;;;;;;;;;5021601;28;20049;-91
2021/12/29 07:15:48;;;;;;;11.10;2.80;;;;;;;;;;5023775;28;20038;-89
2021/12/29 07:18:15;;;;;;;8.73;4.10;;;;;;;;;;5023698;28;20030;-91
2021/12/29 07:20:42;;;;;;;7.57;2.72;;;;;;;;;;5027790;28;20506;-91
2021/12/29 07:23:08;;;;;;;7.63;2.80;;;;;;;;;;5017690;28;20472;-90
2021/12/29 07:25:34;;;;;;;6.22;2.50;;;;;;;;;;5014495;28;20068;-92
2021/12/29 07:28:00;;;;;;;7.40;3.00;;;;;;;;;;5016078;28;20605;-91
2021/12/29 07:30:26;;;;;;;7.53;4.43;;;;;;;;;;5016590;28;20365;-90
2021/12/29 07:32:52;;;;;;;10.70;4.50;;;;;;;;;;5029748;28;20043;-89
2021/12/29 07:35:18;;;;;;;8.68;3.72;;;;;;;;;;5034468;28;20509;-90
2021/12/29 07:37:45;;;;;;;5.72;2.40;;;;;;;;;;5023970;28;20025;-91
2021/12/29 07:40:11;;;;;;;6.15;2.30;;;;;;;;;;5027079;28;20049;-91
2021/12/29 07:42:39;;;;;;;5.57;2.42;;;;;;;;;;5031447;28;20040;-89
2021/12/29 07:45:08;;;;;;;8.50;2.80;;;;;;;;;;5043360;28;20037;-89
2021/12/29 07:47:45;;;;;;;7.85;2.80;;;;;;;;;;5015542;28;20046;-90
2021/12/29 07:50:13;;;;;;;6.30;2.70;;;;;;;;;;5015847;28;20480;-91
2021/12/29 07:52:39;;;;;;;6.85;2.70;;;;;;;;;;5020474;28;20030;-89
2021/12/29 07:55:05;;;;;;;6.18;2.83;;;;;;;;;;5016264;28;20050;-92
2021/12/29 07:57:31;;;;;;;4.55;2.33;;;;;;;;;;5003402;28;20033;-92
2021/12/29 07:59:57;;;;;;;5.72;2.70;;;;;;;;;;5018038;28;20050;-90
2021/12/29 08:02:27;;;;;;;6.57;2.70;;;;;;;;;;5016351;28;20073;-90
2021/12/29 08:04:54;;;;;;;5.28;2.50;;;;;;;;;;5016843;28;20022;-90
2021/12/29 08:07:21;;;;;;;5.22;2.35;;;;;;;;;;5015905;28;20036;-89
2021/12/29 08:09:48;;;;;;;4.90;2.38;;;;;;;;;;5021157;28;20041;-90
2021/12/29 08:12:14;;;;;;;5.35;2.40;;;;;;;;;;4998495;28;20037;-89
2021/12/29 08:14:39;;;;;;;9.07;2.50;;;;;;;;;;5022222;28;20022;-91
2021/12/29 08:17:07;;;;;;;5.07;2.30;;;;;;;;;;5034524;28;20045;-90
2021/12/29 08:19:33;;;;;;;7.95;2.65;;;;;;;;;;5042276;28;20037;-92
2021/12/29 08:21:59;;;;;;;5.18;1.50;;;;;;;;;;5040766;28;20053;-90
2021/12/29 08:27:01;;;;;;;7.45;3.92;;;;;;;;;;5538319;22;20053;-89
2021/12/29 08:29:27;;;;;;;7.20;2.90;;;;;;;;;;5054227;28;20048;-90
2021/12/29 08:31:55;;;;;;;6.35;1.85;;;;;;;;;;5057804;28;20052;-89
2021/12/29 08:34:21;;;;;;;7.90;2.10;;;;;;;;;;5056795;28;20023;-91
2021/12/29 08:36:47;;;;;;;6.50;2.17;;;;;;;;;;5056055;28;20025;-89
2021/12/29 08:39:14;;;;;;;6.35;1.80;;;;;;;;;;5056380;28;20269;-89
2021/12/29 08:41:40;;;;;;;4.72;1.88;;;;;;;;;;5056418;28;20034;-89
2021/12/29 08:44:06;;;;;;;4.05;1.77;;;;;;;;;;5082441;23;20036;-92
2021/12/29 08:46:31;;;;;;;5.82;2.00;;;;;;;;;;5076654;28;20040;-91
2021/12/29 08:48:58;;;;;;;4.45;1.90;;;;;;;;;;5076405;28;20063;-91
2021/12/29 08:51:24;;;;;;;5.43;1.85;;;;;;;;;;5076219;28;20049;-92
2021/12/29 08:53:53;;;;;;;5.25;1.85;;;;;;;;;;5077867;28;20039;-90
2021/12/29 08:56:19;;;;;;;6.75;1.90;;;;;;;;;;5077976;28;20013;-91
2021/12/29 08:58:45;;;;;;;8.50;2.30;;;;;;;;;;5078116;28;20040;-92
2021/12/29 09:01:12;;;;;;;4.82;1.92;;;;;;;;;;5078117;28;20063;-91
2021/12/29 09:03:38;;;;;;;21.35;10.35;;;;;;;;;;5060757;28;20021;-92
2021/12/29 09:06:04;;;;;;;10.73;5.00;;;;;;;;;;5059924;28;20025;-91
2021/12/29 09:08:30;;;;;;;7.30;2.30;;;;;;;;;;5077931;28;20059;-86
2021/12/29 09:10:56;;;;;;;2.90;1.58;;;;;;;;;;5076910;28;20067;-80
2021/12/29 09:13:22;;;;;;;7.78;2.08;;;;;;;;;;5077156;28;20099;-81
2021/12/29 09:15:49;;;;;;;4.97;1.63;;;;;;;;;;5068238;28;20459;-87
2021/12/29 09:18:16;;;;;;;4.60;1.55;;;;;;;;;;5054988;28;20037;-85
2021/12/29 09:20:46;;;;;;;5.57;1.52;;;;;;;;;;5056413;28;20418;-85
2021/12/29 09:23:14;;;;;;;4.38;1.52;;;;;;;;;;5056064;28;20467;-83
2021/12/29 09:25:43;;;;;;;7.05;2.55;;;;;;;;;;5053491;28;20038;-85
2021/12/29 09:28:11;;;;;;;4.90;1.83;;;;;;;;;;5068806;28;20029;-85
2021/12/29 09:30:39;;;;;;;4.07;1.48;;;;;;;;;;5074812;28;20012;-86
2021/12/29 09:33:05;;;;;;;6.57;1.75;;;;;;;;;;5074383;28;20025;-85
2021/12/29 09:35:31;;;;;;;6.63;2.05;;;;;;;;;;5071909;28;20029;-86
2021/12/29 09:37:57;;;;;;;5.07;1.63;;;;;;;;;;5054105;28;20031;-86
2021/12/29 09:40:24;;;;;;;4.18;1.40;;;;;;;;;;5042175;28;20025;-86
2021/12/29 09:42:53;;;;;;;4.18;1.50;;;;;;;;;;5034640;28;20045;-86
2021/12/29 09:45:20;;;;;;;10.32;4.70;;;;;;;;;;5020762;28;20506;-88
2021/12/29 09:47:46;;;;;;;5.85;3.13;;;;;;;;;;5034356;28;20495;-88
2021/12/29 09:50:16;;;;;;;7.25;2.67;;;;;;;;;;5038996;28;20364;-88
2021/12/29 09:52:42;;;;;;;5.82;1.80;;;;;;;;;;5054912;28;20033;-88
2021/12/29 09:55:12;;;;;;;4.35;1.55;;;;;;;;;;5062006;28;20029;-88
2021/12/29 09:57:44;;;;;;;5.38;1.50;;;;;;;;;;5054901;28;20025;-89
2021/12/29 10:00:26;;;;;;;6.60;1.50;;;;;;;;;;5055647;28;20033;-90
2021/12/29 10:02:54;;;;;;;4.65;1.50;;;;;;;;;;5041226;28;20041;-88
2021/12/29 10:05:24;;;;;;;3.22;1.40;;;;;;;;;;5038523;28;20032;-87
2021/12/29 10:08:05;;;;;;;2.97;1.33;;;;;;;;;;5036782;28;20045;-89
2021/12/29 10:10:33;;;;;;;3.95;1.70;;;;;;;;;;5037618;28;20030;-89
2021/12/29 10:13:00;;;;;;;6.57;1.85;;;;;;;;;;5025201;28;20040;-87
2021/12/29 10:15:28;;;;;;;4.45;1.38;;;;;;;;;;5051986;28;20372;-88
2021/12/29 10:18:09;;;;;;;6.75;1.40;;;;;;;;;;5056668;28;20029;-87
2021/12/29 10:20:45;;;;;;;5.13;1.33;;;;;;;;;;5055990;28;20021;-87
2021/12/29 10:23:15;;;;;;;6.55;1.80;;;;;;;;;;5054330;28;20040;-88
2021/12/29 10:25:41;;;;;;;3.67;1.60;;;;;;;;;;5055231;28;20028;-87
2021/12/29 10:28:18;;;;;;;4.47;1.50;;;;;;;;;;5053946;28;20466;-88
2021/12/29 10:30:44;;;;;;;6.13;1.73;;;;;;;;;;5034623;28;20037;-87
2021/12/29 10:33:11;;;;;;;4.88;1.80;;;;;;;;;;5052069;28;20249;-87
2021/12/29 10:35:37;;;;;;;5.70;1.50;;;;;;;;;;5052837;28;20025;-89
2021/12/29 10:38:13;;;;;;;7.55;1.70;;;;;;;;;;5053968;28;20035;-87
2021/12/29 10:40:40;;;;;;;6.60;1.60;;;;;;;;;;5036130;28;20025;-88
2021/12/29 10:43:06;;;;;;;5.65;1.67;;;;;;;;;;5054520;28;20051;-88
2021/12/29 10:45:38;;;;;;;5.80;2.05;;;;;;;;;;5054170;28;20029;-87
2021/12/29 10:48:24;;;;;;;4.85;1.80;;;;;;;;;;5052854;28;20483;-87
2021/12/29 10:51:06;;;;;;;4.47;1.80;;;;;;;;;;5053011;28;20049;-86
2021/12/29 10:53:34;;;;;;;7.68;1.70;;;;;;;;;;5053998;28;20348;-90
2021/12/29 10:56:02;;;;;;;4.38;1.70;;;;;;;;;;5053853;28;20037;-89
2021/12/29 10:58:30;;;;;;;5.15;1.77;;;;;;;;;;5066367;28;20025;-89
2021/12/29 11:01:01;;;;;;;6.75;1.70;;;;;;;;;;5051153;28;20108;-89
2021/12/29 11:03:29;;;;;;;6.07;1.83;;;;;;;;;;5053391;28;20486;-87
2021/12/29 11:06:00;;;;;;;6.65;2.00;;;;;;;;;;5052958;28;20501;-89
2021/12/29 11:08:28;;;;;;;4.45;2.03;;;;;;;;;;5053169;28;20032;-89
2021/12/29 11:11:02;;;;;;;4.28;1.48;;;;;;;;;;5053318;28;20040;-89
2021/12/29 11:13:29;;;;;;;6.85;1.67;;;;;;;;;;5035016;28;20390;-88
2021/12/29 11:15:56;;;;;;;4.13;1.75;;;;;;;;;;5052900;28;20032;-88
2021/12/29 11:18:23;;;;;;;7.50;1.80;;;;;;;;;;5052642;28;20368;-88
2021/12/29 11:20:58;;;;;;;8.57;2.00;;;;;;;;;;5052609;28;20470;-88
2021/12/29 11:23:27;;;;;;;6.35;1.60;;;;;;;;;;5052303;28;20415;-89
2021/12/29 11:26:00;;;;;;;6.80;1.85;;;;;;;;;;5052452;28;20024;-89
2021/12/29 11:28:34;;;;;;;5.85;1.80;;;;;;;;;;5052684;28;20045;-88
2021/12/29 11:31:04;;;;;;;8.00;1.98;;;;;;;;;;5053127;28;20184;-89
2021/12/29 11:33:32;;;;;;;6.93;2.13;;;;;;;;;;5053415;28;20025;-90
2021/12/29 11:35:58;;;;;;;8.52;1.92;;;;;;;;;;5052112;28;20491;-89
2021/12/29 11:38:25;;;;;;;7.43;1.60;;;;;;;;;;5052827;28;20040;-88
2021/12/29 11:40:55;;;;;;;6.50;1.75;;;;;;;;;;5050892;28;20032;-88
2021/12/29 11:43:21;;;;;;;6.18;2.17;;;;;;;;;;5044315;28;20483;-89
2021/12/29 11:45:51;;;;;;;8.98;1.77;;;;;;;;;;5052215;28;20029;-88
2021/12/29 11:48:21;;;;;;;10.60;1.85;;;;;;;;;;5051849;28;20232;-89
2021/12/29 11:50:51;;;;;;;4.38;1.70;;;;;;;;;;5052229;28;20383;-89
2021/12/29 11:53:26;;;;;;;5.18;1.90;;;;;;;;;;5052331;28;20467;-88
2021/12/29 11:56:08;;;;;;;6.13;1.77;;;;;;;;;;5052068;28;20029;-87
2021/12/29 11:58:41;;;;;;;5.20;2.00;;;;;;;;;;5052054;28;20032;-88
2021/12/29 12:01:17;;;;;;;4.22;2.33;;;;;;;;;;5052069;28;20024;-87
2021/12/29 12:03:51;;;;;;;4.05;1.50;;;;;;;;;;5051808;28;20033;-87
2021/12/29 12:06:29;;;;;;;5.28;1.60;;;;;;;;;;5051815;28;20027;-87
2021/12/29 12:09:14;;;;;;;6.03;1.50;;;;;;;;;;5051680;28;20029;-88
2021/12/29 12:11:55;;;;;;;5.55;1.75;;;;;;;;;;5047859;28;20459;-88
2021/12/29 12:14:43;;;;;;;5.55;2.05;;;;;;;;;;5034109;28;20021;-89
2021/12/29 12:17:13;;;;;;;8.70;1.73;;;;;;;;;;5050179;28;20048;-86
2021/12/29 12:19:40;;;;;;;6.78;1.98;;;;;;;;;;5051993;28;20029;-86
2021/12/29 12:22:18;;;;;;;6.50;2.40;;;;;;;;;;5051416;28;20040;-87
2021/12/29 12:24:50;;;;;;;9.27;1.95;;;;;;;;;;5049594;28;20041;-89
2021/12/29 12:27:37;;;;;;;7.65;2.00;;;;;;;;;;5051703;28;20040;-86
2021/12/29 12:30:14;;;;;;;8.93;2.50;;;;;;;;;;5051392;28;20036;-86
2021/12/29 12:32:51;;;;;;;9.07;2.10;;;;;;;;;;5050868;28;20180;-86
2021/12/29 12:35:32;;;;;;;6.20;1.73;;;;;;;;;;5052509;28;20025;-88
2021/12/29 12:38:16;;;;;;;7.50;1.70;;;;;;;;;;5051585;28;20471;-88
2021/12/29 12:40:44;;;;;;;7.15;1.80;;;;;;;;;;5032723;28;20040;-88
2021/12/29 12:43:15;;;;;;;5.78;2.40;;;;;;;;;;5048690;28;20041;-89
2021/12/29 12:45:47;;;;;;;3.58;1.50;;;;;;;;;;5051470;28;20025;-88
2021/12/29 12:48:19;;;;;;;3.78;1.48;;;;;;;;;;5051096;28;20060;-88
2021/12/29 12:50:45;;;;;;;9.15;2.05;;;;;;;;;;5051173;28;20379;-90
2021/12/29 12:53:13;;;;;;;8.70;2.10;;;;;;;;;;5049902;28;20028;-83
2021/12/29 12:55:54;;;;;;;6.00;2.00;;;;;;;;;;5035417;28;20041;-86
2021/12/29 12:58:28;;;;;;;5.70;1.98;;;;;;;;;;5030853;28;20412;-86
2021/12/29 13:01:00;;;;;;;6.07;2.00;;;;;;;;;;5030827;28;20037;-86
2021/12/29 13:03:30;;;;;;;6.60;1.95;;;;;;;;;;5031455;28;20491;-90
2021/12/29 13:05:57;;;;;;;7.30;2.10;;;;;;;;;;5038083;28;20041;-87
2021/12/29 13:08:31;;;;;;;8.82;2.20;;;;;;;;;;5047604;28;20029;-87
2021/12/29 13:11:00;;;;;;;9.40;2.50;;;;;;;;;;5049926;28;20036;-84
2021/12/29 13:13:28;;;;;;;6.93;2.33;;;;;;;;;;5054982;28;20045;-85
2021/12/29 13:15:59;;;;;;;7.38;2.22;;;;;;;;;;5054559;28;20028;-83
2021/12/29 13:18:25;;;;;;;7.88;2.58;;;;;;;;;;5052631;28;20486;-84
2021/12/29 13:21:04;;;;;;;8.65;2.65;;;;;;;;;;5054967;28;20037;-89
2021/12/29 13:23:30;;;;;;;5.78;2.60;;;;;;;;;;5056381;28;20040;-89
2021/12/29 13:25:57;;;;;;;7.13;2.72;;;;;;;;;;5057314;28;20040;-88
2021/12/29 13:28:25;;;;;;;8.57;3.30;;;;;;;;;;5059874;28;20160;-90
2021/12/29 13:31:08;;;;;;;5.57;2.60;;;;;;;;;;5060323;28;20029;-89
2021/12/29 13:33:40;;;;;;;6.75;2.88;;;;;;;;;;5060086;28;20040;-91
2021/12/29 13:36:07;;;;;;;9.05;3.05;;;;;;;;;;5063473;28;20029;-89
2021/12/29 13:38:33;;;;;;;5.65;2.90;;;;;;;;;;5060479;28;20240;-89
2021/12/29 13:40:59;;;;;;;8.10;3.33;;;;;;;;;;5056263;28;20029;-91
2021/12/29 13:43:28;;;;;;;5.78;2.90;;;;;;;;;;5054931;28;20037;-89
2021/12/29 13:45:56;;;;;;;7.32;3.17;;;;;;;;;;5056487;28;20033;-89
2021/12/29 13:48:27;;;;;;;8.18;2.90;;;;;;;;;;5048243;28;20033;-89
2021/12/29 13:51:00;;;;;;;;;;;;;;;;;;5036817;28;20037;-90
2021/12/29 13:53:26;;;;;;;8.38;2.85;;;;;;;;;;5035133;28;19909;-89
2021/12/29 13:55:53;;;;;;;10.25;3.50;;;;;;;;;;5034874;28;20041;-89
2021/12/29 13:58:20;;;;;;;7.63;3.03;;;;;;;;;;5034622;28;20037;-89
2021/12/29 14:00:48;;;;;;;8.93;2.90;;;;;;;;;;5035651;28;20033;-89
2021/12/29 14:03:14;;;;;;;5.45;2.72;;;;;;;;;;5035601;28;20037;-89
2021/12/29 14:05:47;;;;;;;7.07;2.80;;;;;;;;;;5035481;28;20117;-89
2021/12/29 14:08:18;;;;;;;8.10;3.58;;;;;;;;;;5033203;28;20221;-89
2021/12/29 14:10:47;;;;;;;5.70;2.60;;;;;;;;;;5035258;28;20045;-89
2021/12/29 14:13:18;;;;;;;10.23;3.00;;;;;;;;;;5035203;28;20040;-90
2021/12/29 14:15:45;;;;;;;;;;;;;;;;;;5038330;28;20037;-90
2021/12/29 14:18:23;;;;;;;7.57;2.58;;;;;;;;;;5039014;28;19917;-88
2021/12/29 14:20:52;;;;;;;9.55;2.72;;;;;;;;;;5034636;28;20032;-89
2021/12/29 14:23:27;;;;;;;8.85;2.70;;;;;;;;;;5035657;28;20029;-88
2021/12/29 14:25:53;;;;;;;8.23;2.90;;;;;;;;;;5036759;28;20419;-88
2021/12/29 14:28:25;;;;;;;9.15;3.60;;;;;;;;;;5044827;28;20060;-88
2021/12/29 14:31:04;;;;;;;9.57;3.38;;;;;;;;;;5055246;28;20375;-89
2021/12/29 14:33:36;;;;;;;8.07;3.20;;;;;;;;;;5025664;28;20044;-90
2021/12/29 14:36:04;;;;;;;10.68;3.30;;;;;;;;;;5035846;28;20375;-89
2021/12/29 14:38:30;;;;;;;10.05;3.28;;;;;;;;;;5064669;28;20022;-88
2021/12/29 14:40:58;;;;;;;6.75;3.28;;;;;;;;;;5067830;28;20087;-88
2021/12/29 14:43:26;;;;;;;7.32;3.25;;;;;;;;;;5061844;28;20048;-89
2021/12/29 14:46:00;;;;;;;8.68;3.28;;;;;;;;;;5048419;28;20006;-90
2021/12/29 14:48:26;;;;;;;7.68;3.10;;;;;;;;;;5050099;28;20018;-90
2021/12/29 14:50:53;;;;;;;9.05;3.55;;;;;;;;;;5030288;28;20044;-88
2021/12/29 14:53:29;;;;;;;11.35;3.22;;;;;;;;;;5048152;28;20042;-88
2021/12/29 14:56:07;;;;;;;9.60;3.55;;;;;;;;;;5045310;28;20090;-91